Terminal Aerodrome Forecast
Issued by NWS Riverton, WY

Home | Current Version | Previous Version | Text Only | Print | Product List | Glossary On
Versions: 1 2 3 4 5 6 7 8 9 10 11 12 13 14 15 16 17 18 19 20
265
FTUS45 KRIW 080531
TAFRIW
TAF
KRIW 080531Z 0806/0906 VRB03KT P6SM BKN027
     FM081000 VRB03KT P6SM VCFG FEW005
      TEMPO 0810/0812 BKN025
     FM081700 VRB05KT P6SM SCT250
     FM090000 VRB05KT P6SM SCT100 BKN150=

USA.gov is the U.S. government's official web portal to all federal, state and local government web resources and services.